sensor_id;sensor_type;location;lat;lon;timestamp;temperature;humidity
74940;HTU21D;63505;45.226;37.908;2023-03-23T00:01:24;7.74;78.09
74940;HTU21D;63505;45.226;37.908;2023-03-23T00:03:53;7.73;78.08
74940;HTU21D;63505;45.226;37.908;2023-03-23T00:06:24;7.71;78.05
74940;HTU21D;63505;45.226;37.908;2023-03-23T00:08:52;7.68;78.10
74940;HTU21D;63505;45.226;37.908;2023-03-23T00:11:29;7.62;78.18
74940;HTU21D;63505;45.226;37.908;2023-03-23T00:13:56;7.63;78.23
74940;HTU21D;63505;45.226;37.908;2023-03-23T00:16:25;7.63;78.21
74940;HTU21D;63505;45.226;37.908;2023-03-23T00:19:01;7.63;78.20
74940;HTU21D;63505;45.226;37.908;2023-03-23T00:21:30;7.61;78.15
74940;HTU21D;63505;45.226;37.908;2023-03-23T00:26:33;7.55;78.24
74940;HTU21D;63505;45.226;37.908;2023-03-23T00:29:03;7.56;78.23
74940;HTU21D;63505;45.226;37.908;2023-03-23T00:31:30;7.55;78.23
74940;HTU21D;63505;45.226;37.908;2023-03-23T00:34:04;7.53;78.27
74940;HTU21D;63505;45.226;37.908;2023-03-23T00:36:32;7.53;78.30
74940;HTU21D;63505;45.226;37.908;2023-03-23T00:39:03;7.53;78.32
74940;HTU21D;63505;45.226;37.908;2023-03-23T00:41:29;7.52;78.34
74940;HTU21D;63505;45.226;37.908;2023-03-23T00:43:57;7.50;78.31
74940;HTU21D;63505;45.226;37.908;2023-03-23T00:46:26;7.47;78.38
74940;HTU21D;63505;45.226;37.908;2023-03-23T00:48:54;7.45;78.37
74940;HTU21D;63505;45.226;37.908;2023-03-23T00:51:20;7.42;78.43
74940;HTU21D;63505;45.226;37.908;2023-03-23T00:53:47;7.38;78.49
74940;HTU21D;63505;45.226;37.908;2023-03-23T00:56:13;7.35;78.53
74940;HTU21D;63505;45.226;37.908;2023-03-23T00:58:40;7.34;78.55
74940;HTU21D;63505;45.226;37.908;2023-03-23T01:01:06;7.35;78.56
74940;HTU21D;63505;45.226;37.908;2023-03-23T01:03:33;7.32;78.59
74940;HTU21D;63505;45.226;37.908;2023-03-23T01:06:07;7.31;78.57
74940;HTU21D;63505;45.226;37.908;2023-03-23T01:08:42;7.27;78.58
74940;HTU21D;63505;45.226;37.908;2023-03-23T01:11:15;7.27;78.59
74940;HTU21D;63505;45.226;37.908;2023-03-23T01:13:44;7.24;78.62
74940;HTU21D;63505;45.226;37.908;2023-03-23T01:16:12;7.20;78.63
74940;HTU21D;63505;45.226;37.908;2023-03-23T01:18:39;7.19;78.66
74940;HTU21D;63505;45.226;37.908;2023-03-23T01:21:07;7.16;78.69
74940;HTU21D;63505;45.226;37.908;2023-03-23T01:23:34;7.13;78.71
74940;HTU21D;63505;45.226;37.908;2023-03-23T01:26:08;7.08;78.75
74940;HTU21D;63505;45.226;37.908;2023-03-23T01:28:35;7.01;78.81
74940;HTU21D;63505;45.226;37.908;2023-03-23T01:31:03;6.96;78.92
74940;HTU21D;63505;45.226;37.908;2023-03-23T01:33:29;6.94;78.98
74940;HTU21D;63505;45.226;37.908;2023-03-23T01:35:57;6.93;78.98
74940;HTU21D;63505;45.226;37.908;2023-03-23T01:38:23;6.95;78.97
74940;HTU21D;63505;45.226;37.908;2023-03-23T01:40:49;6.95;78.95
74940;HTU21D;63505;45.226;37.908;2023-03-23T01:43:16;6.94;78.95
74940;HTU21D;63505;45.226;37.908;2023-03-23T01:45:44;6.97;78.93
74940;HTU21D;63505;45.226;37.908;2023-03-23T01:48:21;6.97;78.89
74940;HTU21D;63505;45.226;37.908;2023-03-23T01:53:16;6.99;78.85
74940;HTU21D;63505;45.226;37.908;2023-03-23T01:55:43;6.98;78.73
74940;HTU21D;63505;45.226;37.908;2023-03-23T01:58:14;6.98;78.67
74940;HTU21D;63505;45.226;37.908;2023-03-23T02:00:43;6.93;78.71
74940;HTU21D;63505;45.226;37.908;2023-03-23T02:03:09;6.95;78.74
74940;HTU21D;63505;45.226;37.908;2023-03-23T02:05:40;6.94;78.76
74940;HTU21D;63505;45.226;37.908;2023-03-23T02:08:14;6.91;78.80
74940;HTU21D;63505;45.226;37.908;2023-03-23T02:10:41;6.91;78.85
74940;HTU21D;63505;45.226;37.908;2023-03-23T02:13:09;6.90;78.81
74940;HTU21D;63505;45.226;37.908;2023-03-23T02:27:06;6.81;79.01
74940;HTU21D;63505;45.226;37.908;2023-03-23T02:29:55;6.79;78.98
74940;HTU21D;63505;45.226;37.908;2023-03-23T02:35:19;6.66;79.05
74940;HTU21D;63505;45.226;37.908;2023-03-23T02:37:58;6.65;79.12
74940;HTU21D;63505;45.226;37.908;2023-03-23T02:40:40;6.61;79.14
74940;HTU21D;63505;45.226;37.908;2023-03-23T02:43:10;6.57;79.16
74940;HTU21D;63505;45.226;37.908;2023-03-23T02:45:38;6.53;79.25
74940;HTU21D;63505;45.226;37.908;2023-03-23T02:48:04;6.53;79.30
74940;HTU21D;63505;45.226;37.908;2023-03-23T02:50:33;6.53;79.36
74940;HTU21D;63505;45.226;37.908;2023-03-23T02:53:07;6.53;79.33
74940;HTU21D;63505;45.226;37.908;2023-03-23T02:55:34;6.54;79.36
74940;HTU21D;63505;45.226;37.908;2023-03-23T02:58:09;6.53;79.38
74940;HTU21D;63505;45.226;37.908;2023-03-23T03:00:36;6.56;79.40
74940;HTU21D;63505;45.226;37.908;2023-03-23T03:03:04;6.59;79.36
74940;HTU21D;63505;45.226;37.908;2023-03-23T03:10:58;6.84;79.27
74940;HTU21D;63505;45.226;37.908;2023-03-23T03:13:51;6.93;79.22
74940;HTU21D;63505;45.226;37.908;2023-03-23T03:16:44;7.07;79.12
74940;HTU21D;63505;45.226;37.908;2023-03-23T03:19:31;7.14;79.04
74940;HTU21D;63505;45.226;37.908;2023-03-23T03:21:59;7.19;78.98
74940;HTU21D;63505;45.226;37.908;2023-03-23T03:24:38;7.24;78.94
74940;HTU21D;63505;45.226;37.908;2023-03-23T03:27:11;7.28;78.92
74940;HTU21D;63505;45.226;37.908;2023-03-23T03:29:51;7.31;78.92
74940;HTU21D;63505;45.226;37.908;2023-03-23T03:32:23;7.34;78.95
74940;HTU21D;63505;45.226;37.908;2023-03-23T03:34:51;7.38;78.95
74940;HTU21D;63505;45.226;37.908;2023-03-23T03:37:19;7.40;78.98
74940;HTU21D;63505;45.226;37.908;2023-03-23T03:39:47;7.41;79.01
74940;HTU21D;63505;45.226;37.908;2023-03-23T03:42:13;7.44;79.08
74940;HTU21D;63505;45.226;37.908;2023-03-23T03:44:39;7.53;79.11
74940;HTU21D;63505;45.226;37.908;2023-03-23T03:47:05;7.58;79.04
74940;HTU21D;63505;45.226;37.908;2023-03-23T03:49:31;7.60;79.06
74940;HTU21D;63505;45.226;37.908;2023-03-23T03:51:57;7.62;79.11
74940;HTU21D;63505;45.226;37.908;2023-03-23T03:54:35;7.68;79.14
74940;HTU21D;63505;45.226;37.908;2023-03-23T03:57:02;7.71;79.14
74940;HTU21D;63505;45.226;37.908;2023-03-23T03:59:56;7.76;79.13
74940;HTU21D;63505;45.226;37.908;2023-03-23T04:02:46;7.81;79.14
74940;HTU21D;63505;45.226;37.908;2023-03-23T04:05:40;7.85;79.11
74940;HTU21D;63505;45.226;37.908;2023-03-23T04:08:07;7.85;79.11
74940;HTU21D;63505;45.226;37.908;2023-03-23T04:10:33;7.88;79.14
74940;HTU21D;63505;45.226;37.908;2023-03-23T04:13:00;7.90;79.17
74940;HTU21D;63505;45.226;37.908;2023-03-23T04:15:47;7.94;79.17
74940;HTU21D;63505;45.226;37.908;2023-03-23T04:18:14;7.98;79.18
74940;HTU21D;63505;45.226;37.908;2023-03-23T04:20:44;8.01;79.20
74940;HTU21D;63505;45.226;37.908;2023-03-23T04:23:14;8.06;79.21
74940;HTU21D;63505;45.226;37.908;2023-03-23T04:25:40;8.11;79.21
74940;HTU21D;63505;45.226;37.908;2023-03-23T04:28:08;8.15;79.21
74940;HTU21D;63505;45.226;37.908;2023-03-23T04:30:43;8.22;79.21
74940;HTU21D;63505;45.226;37.908;2023-03-23T04:33:11;8.28;79.20
74940;HTU21D;63505;45.226;37.908;2023-03-23T04:35:46;8.37;79.19
74940;HTU21D;63505;45.226;37.908;2023-03-23T04:38:19;8.47;79.17
74940;HTU21D;63505;45.226;37.908;2023-03-23T04:40:52;8.58;79.14
74940;HTU21D;63505;45.226;37.908;2023-03-23T04:43:44;8.71;79.13
74940;HTU21D;63505;45.226;37.908;2023-03-23T04:46:26;8.80;79.08
74940;HTU21D;63505;45.226;37.908;2023-03-23T04:48:58;8.87;79.08
74940;HTU21D;63505;45.226;37.908;2023-03-23T04:51:29;8.90;79.23
74940;HTU21D;63505;45.226;37.908;2023-03-23T04:54:08;8.95;79.32
74940;HTU21D;63505;45.226;37.908;2023-03-23T04:56:35;9.01;79.34
74940;HTU21D;63505;45.226;37.908;2023-03-23T04:59:08;9.07;79.30
74940;HTU21D;63505;45.226;37.908;2023-03-23T05:01:41;9.12;79.27
74940;HTU21D;63505;45.226;37.908;2023-03-23T05:04:17;9.19;79.27
74940;HTU21D;63505;45.226;37.908;2023-03-23T05:06:53;9.30;79.27
74940;HTU21D;63505;45.226;37.908;2023-03-23T05:09:25;9.42;79.17
74940;HTU21D;63505;45.226;37.908;2023-03-23T05:11:51;9.53;79.07
74940;HTU21D;63505;45.226;37.908;2023-03-23T05:14:17;9.63;78.98
74940;HTU21D;63505;45.226;37.908;2023-03-23T05:16:48;9.69;78.89
74940;HTU21D;63505;45.226;37.908;2023-03-23T05:19:18;9.79;78.85
74940;HTU21D;63505;45.226;37.908;2023-03-23T05:21:45;9.85;78.78
74940;HTU21D;63505;45.226;37.908;2023-03-23T05:24:11;9.93;78.72
74940;HTU21D;63505;45.226;37.908;2023-03-23T05:26:37;10.00;78.65
74940;HTU21D;63505;45.226;37.908;2023-03-23T05:29:12;10.15;78.55
74940;HTU21D;63505;45.226;37.908;2023-03-23T05:31:50;10.33;78.36
74940;HTU21D;63505;45.226;37.908;2023-03-23T05:34:16;10.45;78.11
74940;HTU21D;63505;45.226;37.908;2023-03-23T05:36:55;10.53;77.86
74940;HTU21D;63505;45.226;37.908;2023-03-23T05:39:45;10.60;77.63
74940;HTU21D;63505;45.226;37.908;2023-03-23T05:42:38;10.68;77.48
74940;HTU21D;63505;45.226;37.908;2023-03-23T05:45:20;10.78;77.33
74940;HTU21D;63505;45.226;37.908;2023-03-23T05:47:49;10.86;77.21
74940;HTU21D;63505;45.226;37.908;2023-03-23T05:50:19;11.00;77.09
74940;HTU21D;63505;45.226;37.908;2023-03-23T05:52:46;11.18;76.89
74940;HTU21D;63505;45.226;37.908;2023-03-23T05:55:14;11.31;76.59
74940;HTU21D;63505;45.226;37.908;2023-03-23T05:57:43;11.45;76.40
74940;HTU21D;63505;45.226;37.908;2023-03-23T06:00:26;11.59;76.02
74940;HTU21D;63505;45.226;37.908;2023-03-23T06:03:03;11.66;75.77
74940;HTU21D;63505;45.226;37.908;2023-03-23T06:05:44;11.72;75.50
74940;HTU21D;63505;45.226;37.908;2023-03-23T06:08:14;11.72;75.34
74940;HTU21D;63505;45.226;37.908;2023-03-23T06:10:40;11.77;75.23
74940;HTU21D;63505;45.226;37.908;2023-03-23T06:13:06;11.88;75.18
74940;HTU21D;63505;45.226;37.908;2023-03-23T06:15:39;12.00;74.86
74940;HTU21D;63505;45.226;37.908;2023-03-23T06:18:17;12.16;74.54
74940;HTU21D;63505;45.226;37.908;2023-03-23T06:21:10;12.22;73.89
74940;HTU21D;63505;45.226;37.908;2023-03-23T06:23:51;12.26;73.77
74940;HTU21D;63505;45.226;37.908;2023-03-23T06:26:20;12.36;73.57
74940;HTU21D;63505;45.226;37.908;2023-03-23T06:28:51;12.41;73.38
74940;HTU21D;63505;45.226;37.908;2023-03-23T06:31:17;12.48;73.29
74940;HTU21D;63505;45.226;37.908;2023-03-23T06:33:47;12.50;72.99
74940;HTU21D;63505;45.226;37.908;2023-03-23T06:36:25;12.52;72.90
74940;HTU21D;63505;45.226;37.908;2023-03-23T06:39:24;12.62;72.77
74940;HTU21D;63505;45.226;37.908;2023-03-23T06:41:58;12.71;72.40
74940;HTU21D;63505;45.226;37.908;2023-03-23T06:44:30;12.76;72.11
74940;HTU21D;63505;45.226;37.908;2023-03-23T06:46:56;12.85;72.04
74940;HTU21D;63505;45.226;37.908;2023-03-23T06:49:26;12.91;71.85
74940;HTU21D;63505;45.226;37.908;2023-03-23T06:52:06;13.00;71.64
74940;HTU21D;63505;45.226;37.908;2023-03-23T06:54:33;13.06;71.16
74940;HTU21D;63505;45.226;37.908;2023-03-23T06:57:01;13.22;71.01
74940;HTU21D;63505;45.226;37.908;2023-03-23T06:59:26;13.33;70.85
74940;HTU21D;63505;45.226;37.908;2023-03-23T07:01:52;13.39;70.64
74940;HTU21D;63505;45.226;37.908;2023-03-23T07:04:18;13.44;70.63
74940;HTU21D;63505;45.226;37.908;2023-03-23T07:07:01;13.47;70.19
74940;HTU21D;63505;45.226;37.908;2023-03-23T07:09:30;13.52;70.26
74940;HTU21D;63505;45.226;37.908;2023-03-23T07:11:56;13.63;70.11
74940;HTU21D;63505;45.226;37.908;2023-03-23T07:14:31;13.74;70.04
74940;HTU21D;63505;45.226;37.908;2023-03-23T07:16:57;13.88;69.78
74940;HTU21D;63505;45.226;37.908;2023-03-23T07:19:24;13.97;69.33
74940;HTU21D;63505;45.226;37.908;2023-03-23T07:21:50;14.11;69.27
74940;HTU21D;63505;45.226;37.908;2023-03-23T07:24:20;14.27;69.25
74940;HTU21D;63505;45.226;37.908;2023-03-23T07:27:12;14.47;68.96
74940;HTU21D;63505;45.226;37.908;2023-03-23T07:29:39;14.70;68.88
74940;HTU21D;63505;45.226;37.908;2023-03-23T07:32:12;14.93;68.70
74940;HTU21D;63505;45.226;37.908;2023-03-23T07:34:38;15.06;68.32
74940;HTU21D;63505;45.226;37.908;2023-03-23T07:37:13;15.08;68.10
74940;HTU21D;63505;45.226;37.908;2023-03-23T07:39:45;15.14;67.59
74940;HTU21D;63505;45.226;37.908;2023-03-23T07:42:12;15.13;67.54
74940;HTU21D;63505;45.226;37.908;2023-03-23T07:44:47;15.15;67.60
74940;HTU21D;63505;45.226;37.908;2023-03-23T07:47:13;15.11;65.98
74940;HTU21D;63505;45.226;37.908;2023-03-23T07:49:40;15.18;65.99
74940;HTU21D;63505;45.226;37.908;2023-03-23T07:52:25;15.28;66.13
74940;HTU21D;63505;45.226;37.908;2023-03-23T07:54:51;15.53;66.04
74940;HTU21D;63505;45.226;37.908;2023-03-23T07:57:37;15.71;65.16
74940;HTU21D;63505;45.226;37.908;2023-03-23T08:00:05;15.82;64.04
74940;HTU21D;63505;45.226;37.908;2023-03-23T08:02:56;15.97;63.68
74940;HTU21D;63505;45.226;37.908;2023-03-23T08:05:58;16.12;62.89
74940;HTU21D;63505;45.226;37.908;2023-03-23T08:08:48;16.26;62.10
74940;HTU21D;63505;45.226;37.908;2023-03-23T08:11:50;16.64;62.41
74940;HTU21D;63505;45.226;37.908;2023-03-23T08:14:38;17.04;61.33
74940;HTU21D;63505;45.226;37.908;2023-03-23T08:17:34;17.24;59.37
74940;HTU21D;63505;45.226;37.908;2023-03-23T08:20:29;17.35;58.51
74940;HTU21D;63505;45.226;37.908;2023-03-23T08:23:24;17.45;58.55
74940;HTU21D;63505;45.226;37.908;2023-03-23T08:26:09;17.75;59.43
74940;HTU21D;63505;45.226;37.908;2023-03-23T08:29:04;18.14;58.92
74940;HTU21D;63505;45.226;37.908;2023-03-23T08:31:57;18.33;57.93
74940;HTU21D;63505;45.226;37.908;2023-03-23T08:34:26;18.36;57.67
74940;HTU21D;63505;45.226;37.908;2023-03-23T08:37:09;18.41;56.98
74940;HTU21D;63505;45.226;37.908;2023-03-23T08:39:57;18.35;56.45
74940;HTU21D;63505;45.226;37.908;2023-03-23T08:42:55;18.34;56.02
74940;HTU21D;63505;45.226;37.908;2023-03-23T08:45:39;18.23;55.64
74940;HTU21D;63505;45.226;37.908;2023-03-23T08:48:09;18.28;56.31
74940;HTU21D;63505;45.226;37.908;2023-03-23T08:51:05;18.40;56.00
74940;HTU21D;63505;45.226;37.908;2023-03-23T08:53:55;18.50;55.20
74940;HTU21D;63505;45.226;37.908;2023-03-23T08:56:52;18.43;55.29
74940;HTU21D;63505;45.226;37.908;2023-03-23T08:59:41;18.44;54.55
74940;HTU21D;63505;45.226;37.908;2023-03-23T09:02:26;18.34;55.06
74940;HTU21D;63505;45.226;37.908;2023-03-23T09:05:02;18.37;55.98
74940;HTU21D;63505;45.226;37.908;2023-03-23T09:07:55;18.62;54.97
74940;HTU21D;63505;45.226;37.908;2023-03-23T09:10:22;18.63;55.52
74940;HTU21D;63505;45.226;37.908;2023-03-23T09:12:51;18.79;56.00
74940;HTU21D;63505;45.226;37.908;2023-03-23T09:15:18;19.02;55.41
74940;HTU21D;63505;45.226;37.908;2023-03-23T09:17:46;18.91;54.59
74940;HTU21D;63505;45.226;37.908;2023-03-23T09:20:15;18.92;54.74
74940;HTU21D;63505;45.226;37.908;2023-03-23T09:22:43;18.71;54.46
74940;HTU21D;63505;45.226;37.908;2023-03-23T09:25:12;18.40;54.33
74940;HTU21D;63505;45.226;37.908;2023-03-23T09:27:39;18.37;55.38
74940;HTU21D;63505;45.226;37.908;2023-03-23T09:30:07;18.52;55.33
74940;HTU21D;63505;45.226;37.908;2023-03-23T09:32:34;18.50;55.06
74940;HTU21D;63505;45.226;37.908;2023-03-23T09:35:01;18.70;55.64
74940;HTU21D;63505;45.226;37.908;2023-03-23T09:37:27;18.95;54.82
74940;HTU21D;63505;45.226;37.908;2023-03-23T09:39:53;18.94;54.68
74940;HTU21D;63505;45.226;37.908;2023-03-23T09:50:32;19.32;54.82
74940;HTU21D;63505;45.226;37.908;2023-03-23T09:53:14;19.65;54.90
74940;HTU21D;63505;45.226;37.908;2023-03-23T09:55:43;19.82;53.49
74940;HTU21D;63505;45.226;37.908;2023-03-23T09:58:25;19.69;52.45
74940;HTU21D;63505;45.226;37.908;2023-03-23T10:01:06;19.66;53.37
74940;HTU21D;63505;45.226;37.908;2023-03-23T10:03:43;19.67;53.48
74940;HTU21D;63505;45.226;37.908;2023-03-23T10:06:15;19.62;52.77
74940;HTU21D;63505;45.226;37.908;2023-03-23T10:08:49;19.70;53.72
74940;HTU21D;63505;45.226;37.908;2023-03-23T10:14:47;19.85;53.14
74940;HTU21D;63505;45.226;37.908;2023-03-23T10:17:26;20.05;52.98
74940;HTU21D;63505;45.226;37.908;2023-03-23T10:22:31;20.24;52.27
74940;HTU21D;63505;45.226;37.908;2023-03-23T10:28:01;20.41;51.60
74940;HTU21D;63505;45.226;37.908;2023-03-23T10:30:31;20.57;51.86
74940;HTU21D;63505;45.226;37.908;2023-03-23T10:38:45;20.42;49.49
74940;HTU21D;63505;45.226;37.908;2023-03-23T10:41:15;20.26;50.29
74940;HTU21D;63505;45.226;37.908;2023-03-23T10:43:42;20.20;50.25
74940;HTU21D;63505;45.226;37.908;2023-03-23T10:46:40;20.09;50.69
74940;HTU21D;63505;45.226;37.908;2023-03-23T10:49:15;20.11;51.08
74940;HTU21D;63505;45.226;37.908;2023-03-23T10:51:46;20.26;51.22
74940;HTU21D;63505;45.226;37.908;2023-03-23T10:54:26;20.27;50.99
74940;HTU21D;63505;45.226;37.908;2023-03-23T10:56:52;20.21;50.60
74940;HTU21D;63505;45.226;37.908;2023-03-23T10:59:29;20.19;51.08
74940;HTU21D;63505;45.226;37.908;2023-03-23T11:01:59;20.20;50.31
74940;HTU21D;63505;45.226;37.908;2023-03-23T11:04:26;20.29;50.67
74940;HTU21D;63505;45.226;37.908;2023-03-23T11:06:57;20.37;50.48
74940;HTU21D;63505;45.226;37.908;2023-03-23T11:09:35;20.53;51.10
74940;HTU21D;63505;45.226;37.908;2023-03-23T11:12:02;20.74;50.90
74940;HTU21D;63505;45.226;37.908;2023-03-23T11:14:33;20.80;50.30
74940;HTU21D;63505;45.226;37.908;2023-03-23T11:17:03;20.88;50.86
74940;HTU21D;63505;45.226;37.908;2023-03-23T11:19:34;20.98;50.76
74940;HTU21D;63505;45.226;37.908;2023-03-23T11:24:40;20.84;49.82
74940;HTU21D;63505;45.226;37.908;2023-03-23T11:27:08;20.91;50.36
74940;HTU21D;63505;45.226;37.908;2023-03-23T11:29:37;21.03;50.15
74940;HTU21D;63505;45.226;37.908;2023-03-23T11:32:11;20.81;49.11
74940;HTU21D;63505;45.226;37.908;2023-03-23T11:34:43;20.62;49.66
74940;HTU21D;63505;45.226;37.908;2023-03-23T11:37:35;20.26;48.86
74940;HTU21D;63505;45.226;37.908;2023-03-23T11:40:15;19.81;49.25
74940;HTU21D;63505;45.226;37.908;2023-03-23T11:42:55;19.66;50.55
74940;HTU21D;63505;45.226;37.908;2023-03-23T11:50:34;19.25;51.74
74940;HTU21D;63505;45.226;37.908;2023-03-23T11:58:15;18.82;52.59
74940;HTU21D;63505;45.226;37.908;2023-03-23T12:00:56;18.66;52.88
74940;HTU21D;63505;45.226;37.908;2023-03-23T12:03:26;18.62;53.35
74940;HTU21D;63505;45.226;37.908;2023-03-23T12:06:05;18.61;53.66
74940;HTU21D;63505;45.226;37.908;2023-03-23T12:19:31;19.12;53.73
74940;HTU21D;63505;45.226;37.908;2023-03-23T12:22:24;19.17;53.69
74940;HTU21D;63505;45.226;37.908;2023-03-23T12:28:39;19.02;54.17
74940;HTU21D;63505;45.226;37.908;2023-03-23T12:41:17;18.84;55.00
74940;HTU21D;63505;45.226;37.908;2023-03-23T12:43:48;18.89;55.27
74940;HTU21D;63505;45.226;37.908;2023-03-23T12:49:25;19.14;55.20
74940;HTU21D;63505;45.226;37.908;2023-03-23T12:52:04;19.15;55.09
74940;HTU21D;63505;45.226;37.908;2023-03-23T12:55:09;19.09;54.82
74940;HTU21D;63505;45.226;37.908;2023-03-23T13:00:35;18.78;55.78
74940;HTU21D;63505;45.226;37.908;2023-03-23T13:03:11;18.71;56.10
74940;HTU21D;63505;45.226;37.908;2023-03-23T13:05:56;18.62;56.29
74940;HTU21D;63505;45.226;37.908;2023-03-23T13:08:31;18.52;56.39
74940;HTU21D;63505;45.226;37.908;2023-03-23T13:11:15;18.46;56.46
74940;HTU21D;63505;45.226;37.908;2023-03-23T13:13:49;18.41;56.54
74940;HTU21D;63505;45.226;37.908;2023-03-23T13:21:50;18.32;56.46
74940;HTU21D;63505;45.226;37.908;2023-03-23T13:24:27;18.28;56.68
74940;HTU21D;63505;45.226;37.908;2023-03-23T13:26:54;18.21;56.90
74940;HTU21D;63505;45.226;37.908;2023-03-23T13:29:24;18.15;57.06
74940;HTU21D;63505;45.226;37.908;2023-03-23T13:32:05;18.10;57.25
74940;HTU21D;63505;45.226;37.908;2023-03-23T13:34:32;18.06;57.47
74940;HTU21D;63505;45.226;37.908;2023-03-23T13:37:10;18.00;57.67
74940;HTU21D;63505;45.226;37.908;2023-03-23T13:40:23;17.97;57.91
74940;HTU21D;63505;45.226;37.908;2023-03-23T13:42:50;17.92;58.09
74940;HTU21D;63505;45.226;37.908;2023-03-23T13:47:48;17.81;58.25
74940;HTU21D;63505;45.226;37.908;2023-03-23T13:50:26;17.75;58.28
74940;HTU21D;63505;45.226;37.908;2023-03-23T13:52:58;17.68;58.30
74940;HTU21D;63505;45.226;37.908;2023-03-23T13:58:10;17.59;58.45
74940;HTU21D;63505;45.226;37.908;2023-03-23T14:00:46;17.50;58.67
74940;HTU21D;63505;45.226;37.908;2023-03-23T14:03:14;17.46;58.87
74940;HTU21D;63505;45.226;37.908;2023-03-23T14:10:56;17.32;59.26
74940;HTU21D;63505;45.226;37.908;2023-03-23T14:16:41;17.23;59.75
74940;HTU21D;63505;45.226;37.908;2023-03-23T14:19:23;17.20;59.90
74940;HTU21D;63505;45.226;37.908;2023-03-23T14:21:53;17.15;60.20
74940;HTU21D;63505;45.226;37.908;2023-03-23T14:24:24;17.15;60.30
74940;HTU21D;63505;45.226;37.908;2023-03-23T14:26:52;17.11;60.47
74940;HTU21D;63505;45.226;37.908;2023-03-23T14:29:20;17.09;60.64
74940;HTU21D;63505;45.226;37.908;2023-03-23T14:31:56;17.08;60.76
74940;HTU21D;63505;45.226;37.908;2023-03-23T14:34:25;17.04;60.93
74940;HTU21D;63505;45.226;37.908;2023-03-23T14:36:53;17.01;61.05
74940;HTU21D;63505;45.226;37.908;2023-03-23T14:39:28;16.99;61.21
74940;HTU21D;63505;45.226;37.908;2023-03-23T14:41:56;16.93;61.36
74940;HTU21D;63505;45.226;37.908;2023-03-23T14:44:32;16.91;61.60
74940;HTU21D;63505;45.226;37.908;2023-03-23T14:47:02;16.87;61.76
74940;HTU21D;63505;45.226;37.908;2023-03-23T14:49:35;16.84;61.91
74940;HTU21D;63505;45.226;37.908;2023-03-23T14:52:10;16.79;62.08
74940;HTU21D;63505;45.226;37.908;2023-03-23T14:54:36;16.75;62.09
74940;HTU21D;63505;45.226;37.908;2023-03-23T14:57:42;16.72;62.20
74940;HTU21D;63505;45.226;37.908;2023-03-23T15:00:20;16.66;62.31
74940;HTU21D;63505;45.226;37.908;2023-03-23T15:02:53;16.61;62.42
74940;HTU21D;63505;45.226;37.908;2023-03-23T15:05:27;16.58;62.50
74940;HTU21D;63505;45.226;37.908;2023-03-23T15:07:58;16.55;62.58
74940;HTU21D;63505;45.226;37.908;2023-03-23T15:10:25;16.51;62.65
74940;HTU21D;63505;45.226;37.908;2023-03-23T15:12:52;16.46;62.72
74940;HTU21D;63505;45.226;37.908;2023-03-23T15:15:27;16.42;62.81
74940;HTU21D;63505;45.226;37.908;2023-03-23T15:17:54;16.36;62.90
74940;HTU21D;63505;45.226;37.908;2023-03-23T15:20:30;16.32;63.00
74940;HTU21D;63505;45.226;37.908;2023-03-23T15:23:04;16.27;63.11
74940;HTU21D;63505;45.226;37.908;2023-03-23T15:25:33;16.22;63.20
74940;HTU21D;63505;45.226;37.908;2023-03-23T15:28:29;16.16;63.34
74940;HTU21D;63505;45.226;37.908;2023-03-23T15:30:57;16.13;63.37
74940;HTU21D;63505;45.226;37.908;2023-03-23T15:33:25;16.07;63.49
74940;HTU21D;63505;45.226;37.908;2023-03-23T15:35:56;16.02;63.60
74940;HTU21D;63505;45.226;37.908;2023-03-23T15:38:30;15.99;63.68
74940;HTU21D;63505;45.226;37.908;2023-03-23T15:41:01;15.96;63.77
74940;HTU21D;63505;45.226;37.908;2023-03-23T15:43:36;15.91;63.88
74940;HTU21D;63505;45.226;37.908;2023-03-23T15:51:12;15.75;64.29
74940;HTU21D;63505;45.226;37.908;2023-03-23T15:53:39;15.68;64.40
74940;HTU21D;63505;45.226;37.908;2023-03-23T15:56:07;15.59;64.62
74940;HTU21D;63505;45.226;37.908;2023-03-23T15:58:34;15.52;64.79
74940;HTU21D;63505;45.226;37.908;2023-03-23T16:01:04;15.47;64.90
74940;HTU21D;63505;45.226;37.908;2023-03-23T16:06:12;15.37;65.12
74940;HTU21D;63505;45.226;37.908;2023-03-23T16:08:39;15.28;65.20
74940;HTU21D;63505;45.226;37.908;2023-03-23T16:11:08;15.22;65.37
74940;HTU21D;63505;45.226;37.908;2023-03-23T16:13:34;15.13;65.53
74940;HTU21D;63505;45.226;37.908;2023-03-23T16:16:00;15.06;65.64
74940;HTU21D;63505;45.226;37.908;2023-03-23T16:18:27;15.00;65.75
74940;HTU21D;63505;45.226;37.908;2023-03-23T16:20:53;14.95;65.85
74940;HTU21D;63505;45.226;37.908;2023-03-23T16:23:19;14.89;65.93
74940;HTU21D;63505;45.226;37.908;2023-03-23T16:25:45;14.84;66.05
74940;HTU21D;63505;45.226;37.908;2023-03-23T16:28:12;14.80;66.17
74940;HTU21D;63505;45.226;37.908;2023-03-23T16:30:39;14.77;66.27
74940;HTU21D;63505;45.226;37.908;2023-03-23T16:33:05;14.73;66.40
74940;HTU21D;63505;45.226;37.908;2023-03-23T16:35:32;14.69;66.52
74940;HTU21D;63505;45.226;37.908;2023-03-23T16:37:58;14.64;66.66
74940;HTU21D;63505;45.226;37.908;2023-03-23T16:40:24;14.59;66.82
74940;HTU21D;63505;45.226;37.908;2023-03-23T16:42:52;14.54;66.96
74940;HTU21D;63505;45.226;37.908;2023-03-23T16:45:18;14.50;67.08
74940;HTU21D;63505;45.226;37.908;2023-03-23T16:47:45;14.42;67.22
74940;HTU21D;63505;45.226;37.908;2023-03-23T16:50:13;14.36;67.43
74940;HTU21D;63505;45.226;37.908;2023-03-23T16:52:42;14.30;67.53
74940;HTU21D;63505;45.226;37.908;2023-03-23T16:55:10;14.30;67.59
74940;HTU21D;63505;45.226;37.908;2023-03-23T16:57:37;14.26;67.70
74940;HTU21D;63505;45.226;37.908;2023-03-23T17:00:07;14.20;67.83
74940;HTU21D;63505;45.226;37.908;2023-03-23T17:02:34;14.13;67.91
74940;HTU21D;63505;45.226;37.908;2023-03-23T17:05:00;14.05;68.05
74940;HTU21D;63505;45.226;37.908;2023-03-23T17:07:26;13.96;68.19
74940;HTU21D;63505;45.226;37.908;2023-03-23T17:09:53;13.88;68.30
74940;HTU21D;63505;45.226;37.908;2023-03-23T17:12:19;13.78;68.39
74940;HTU21D;63505;45.226;37.908;2023-03-23T17:14:45;13.66;68.52
74940;HTU21D;63505;45.226;37.908;2023-03-23T17:17:11;13.55;68.65
74940;HTU21D;63505;45.226;37.908;2023-03-23T17:19:37;13.45;68.80
74940;HTU21D;63505;45.226;37.908;2023-03-23T17:22:03;13.33;68.93
74940;HTU21D;63505;45.226;37.908;2023-03-23T17:24:28;13.22;69.04
74940;HTU21D;63505;45.226;37.908;2023-03-23T17:26:54;13.10;69.17
74940;HTU21D;63505;45.226;37.908;2023-03-23T17:29:20;12.99;69.35
74940;HTU21D;63505;45.226;37.908;2023-03-23T17:31:49;12.89;69.49
74940;HTU21D;63505;45.226;37.908;2023-03-23T17:34:16;12.78;69.49
74940;HTU21D;63505;45.226;37.908;2023-03-23T17:36:42;12.70;69.56
74940;HTU21D;63505;45.226;37.908;2023-03-23T17:39:08;12.64;69.65